sensor_id;sensor_type;location;lat;lon;timestamp;pressure;altitude;pressure_sealevel;temperature
15144;BMP180;7672;50.834;6.286;2023-03-14T00:01:44;97245.34;;;15.40
15144;BMP180;7672;50.834;6.286;2023-03-14T00:04:11;97245.41;;;15.38
15144;BMP180;7672;50.834;6.286;2023-03-14T00:06:38;97264.22;;;15.36
15144;BMP180;7672;50.834;6.286;2023-03-14T00:09:05;97286.31;;;15.35
15144;BMP180;7672;50.834;6.286;2023-03-14T00:11:32;97304.13;;;15.35
15144;BMP180;7672;50.834;6.286;2023-03-14T00:13:59;97309.25;;;15.34
15144;BMP180;7672;50.834;6.286;2023-03-14T00:16:26;97315.00;;;15.37
15144;BMP180;7672;50.834;6.286;2023-03-14T00:18:53;97325.13;;;15.39
15144;BMP180;7672;50.834;6.286;2023-03-14T00:21:20;97339.47;;;15.40
15144;BMP180;7672;50.834;6.286;2023-03-14T00:23:47;97350.56;;;15.39
15144;BMP180;7672;50.834;6.286;2023-03-14T00:26:17;97359.09;;;15.38
15144;BMP180;7672;50.834;6.286;2023-03-14T00:28:45;97393.09;;;15.37
15144;BMP180;7672;50.834;6.286;2023-03-14T00:31:15;97390.63;;;15.35
15144;BMP180;7672;50.834;6.286;2023-03-14T00:33:44;97408.66;;;15.31
15144;BMP180;7672;50.834;6.286;2023-03-14T00:36:17;97398.16;;;15.20
15144;BMP180;7672;50.834;6.286;2023-03-14T00:38:46;97389.66;;;15.04
15144;BMP180;7672;50.834;6.286;2023-03-14T00:41:17;97394.72;;;14.87
15144;BMP180;7672;50.834;6.286;2023-03-14T00:43:45;97384.56;;;14.70
15144;BMP180;7672;50.834;6.286;2023-03-14T00:46:12;97369.22;;;14.55
15144;BMP180;7672;50.834;6.286;2023-03-14T00:48:40;97372.56;;;14.38
15144;BMP180;7672;50.834;6.286;2023-03-14T00:51:08;97362.16;;;14.26
15144;BMP180;7672;50.834;6.286;2023-03-14T00:53:37;97376.19;;;14.16
15144;BMP180;7672;50.834;6.286;2023-03-14T00:56:08;97371.44;;;14.09
15144;BMP180;7672;50.834;6.286;2023-03-14T00:58:36;97372.59;;;14.02
15144;BMP180;7672;50.834;6.286;2023-03-14T01:01:18;97366.13;;;13.95
15144;BMP180;7672;50.834;6.286;2023-03-14T01:03:46;97371.44;;;13.90
15144;BMP180;7672;50.834;6.286;2023-03-14T01:06:15;97369.25;;;13.83
15144;BMP180;7672;50.834;6.286;2023-03-14T01:08:44;97369.44;;;13.78
15144;BMP180;7672;50.834;6.286;2023-03-14T01:11:15;97357.78;;;13.74
15144;BMP180;7672;50.834;6.286;2023-03-14T01:13:43;97355.38;;;13.71
15144;BMP180;7672;50.834;6.286;2023-03-14T01:16:12;97353.88;;;13.67
15144;BMP180;7672;50.834;6.286;2023-03-14T01:18:42;97348.03;;;13.65
15144;BMP180;7672;50.834;6.286;2023-03-14T01:21:38;97335.50;;;13.62
15144;BMP180;7672;50.834;6.286;2023-03-14T01:24:06;97321.31;;;13.58
15144;BMP180;7672;50.834;6.286;2023-03-14T01:26:34;97323.00;;;13.58
15144;BMP180;7672;50.834;6.286;2023-03-14T01:29:02;97325.53;;;13.58
15144;BMP180;7672;50.834;6.286;2023-03-14T01:31:30;97319.66;;;13.57
15144;BMP180;7672;50.834;6.286;2023-03-14T01:33:56;97321.38;;;13.57
15144;BMP180;7672;50.834;6.286;2023-03-14T01:36:23;97315.47;;;13.57
15144;BMP180;7672;50.834;6.286;2023-03-14T01:38:50;97313.81;;;13.56
15144;BMP180;7672;50.834;6.286;2023-03-14T01:41:24;97293.66;;;13.53
15144;BMP180;7672;50.834;6.286;2023-03-14T01:43:51;97305.66;;;13.49
15144;BMP180;7672;50.834;6.286;2023-03-14T01:46:41;97303.41;;;13.43
15144;BMP180;7672;50.834;6.286;2023-03-14T01:49:29;97301.22;;;13.36
15144;BMP180;7672;50.834;6.286;2023-03-14T01:52:13;97299.75;;;13.30
15144;BMP180;7672;50.834;6.286;2023-03-14T01:55:17;97309.41;;;13.22
15144;BMP180;7672;50.834;6.286;2023-03-14T01:57:57;97306.19;;;13.19
15144;BMP180;7672;50.834;6.286;2023-03-14T02:00:25;97299.50;;;13.18
15144;BMP180;7672;50.834;6.286;2023-03-14T02:02:58;97299.50;;;13.18
15144;BMP180;7672;50.834;6.286;2023-03-14T02:05:31;97297.69;;;13.20
15144;BMP180;7672;50.834;6.286;2023-03-14T02:08:02;97296.03;;;13.19
15144;BMP180;7672;50.834;6.286;2023-03-14T02:10:39;97296.97;;;13.18
15144;BMP180;7672;50.834;6.286;2023-03-14T02:13:07;97290.31;;;13.15
15144;BMP180;7672;50.834;6.286;2023-03-14T02:15:34;97294.53;;;13.15
15144;BMP180;7672;50.834;6.286;2023-03-14T02:18:03;97291.31;;;13.11
15144;BMP180;7672;50.834;6.286;2023-03-14T02:23:23;97295.78;;;13.06
15144;BMP180;7672;50.834;6.286;2023-03-14T02:26:36;97284.06;;;13.04
15144;BMP180;7672;50.834;6.286;2023-03-14T02:29:05;97289.94;;;13.04
15144;BMP180;7672;50.834;6.286;2023-03-14T02:31:33;97282.19;;;13.07
15144;BMP180;7672;50.834;6.286;2023-03-14T02:34:01;97265.94;;;13.11
15144;BMP180;7672;50.834;6.286;2023-03-14T02:36:29;97269.19;;;13.15
15144;BMP180;7672;50.834;6.286;2023-03-14T02:39:26;97279.22;;;13.18
15144;BMP180;7672;50.834;6.286;2023-03-14T02:41:54;97269.00;;;13.19
15144;BMP180;7672;50.834;6.286;2023-03-14T02:44:21;97267.09;;;13.24
15144;BMP180;7672;50.834;6.286;2023-03-14T02:46:47;97245.84;;;13.27
15144;BMP180;7672;50.834;6.286;2023-03-14T02:49:16;97243.84;;;13.33
15144;BMP180;7672;50.834;6.286;2023-03-14T02:51:45;97249.66;;;13.35
15144;BMP180;7672;50.834;6.286;2023-03-14T02:54:15;97262.22;;;13.38
15144;BMP180;7672;50.834;6.286;2023-03-14T02:56:42;97262.94;;;13.40
15144;BMP180;7672;50.834;6.286;2023-03-14T02:59:09;97268.78;;;13.42
15144;BMP180;7672;50.834;6.286;2023-03-14T03:01:36;97264.59;;;13.41
15144;BMP180;7672;50.834;6.286;2023-03-14T03:04:03;97246.84;;;13.41
15144;BMP180;7672;50.834;6.286;2023-03-14T03:06:30;97239.31;;;13.40
15144;BMP180;7672;50.834;6.286;2023-03-14T03:08:56;97242.75;;;13.39
15144;BMP180;7672;50.834;6.286;2023-03-14T03:11:23;97236.84;;;13.38
15144;BMP180;7672;50.834;6.286;2023-03-14T03:13:50;97236.00;;;13.38
15144;BMP180;7672;50.834;6.286;2023-03-14T03:16:17;97222.53;;;13.37
15144;BMP180;7672;50.834;6.286;2023-03-14T03:18:43;97234.34;;;13.37
15144;BMP180;7672;50.834;6.286;2023-03-14T03:21:10;97231.00;;;13.36
15144;BMP180;7672;50.834;6.286;2023-03-14T03:23:37;97231.00;;;13.36
15144;BMP180;7672;50.834;6.286;2023-03-14T03:26:04;97240.28;;;13.37
15144;BMP180;7672;50.834;6.286;2023-03-14T03:28:31;97236.09;;;13.36
15144;BMP180;7672;50.834;6.286;2023-03-14T03:30:58;97231.81;;;13.37
15144;BMP180;7672;50.834;6.286;2023-03-14T03:33:25;97231.25;;;13.32
15144;BMP180;7672;50.834;6.286;2023-03-14T03:35:52;97227.13;;;13.29
15144;BMP180;7672;50.834;6.286;2023-03-14T03:38:19;97220.47;;;13.27
15144;BMP180;7672;50.834;6.286;2023-03-14T03:40:46;97221.38;;;13.26
15144;BMP180;7672;50.834;6.286;2023-03-14T03:43:13;97224.03;;;13.23
15144;BMP180;7672;50.834;6.286;2023-03-14T03:45:40;97229.13;;;13.23
15144;BMP180;7672;50.834;6.286;2023-03-14T03:48:07;97219.78;;;13.23
15144;BMP180;7672;50.834;6.286;2023-03-14T03:50:34;97218.13;;;13.22
15144;BMP180;7672;50.834;6.286;2023-03-14T03:53:00;97216.47;;;13.21
15144;BMP180;7672;50.834;6.286;2023-03-14T03:55:27;97207.25;;;13.20
15144;BMP180;7672;50.834;6.286;2023-03-14T03:57:55;97209.78;;;13.20
15144;BMP180;7672;50.834;6.286;2023-03-14T04:00:21;97221.56;;;13.21
15144;BMP180;7672;50.834;6.286;2023-03-14T04:02:48;97200.47;;;13.21
15144;BMP180;7672;50.834;6.286;2023-03-14T04:05:15;97209.72;;;13.22
15144;BMP180;7672;50.834;6.286;2023-03-14T04:07:42;97218.13;;;13.22
15144;BMP180;7672;50.834;6.286;2023-03-14T04:10:09;97208.88;;;13.21
15144;BMP180;7672;50.834;6.286;2023-03-14T04:12:36;97209.78;;;13.20
15144;BMP180;7672;50.834;6.286;2023-03-14T04:15:03;97215.69;;;13.21
15144;BMP180;7672;50.834;6.286;2023-03-14T04:17:30;97207.25;;;13.20
15144;BMP180;7672;50.834;6.286;2023-03-14T04:19:57;97209.03;;;13.18
15144;BMP180;7672;50.834;6.286;2023-03-14T04:22:24;97197.31;;;13.16
15144;BMP180;7672;50.834;6.286;2023-03-14T04:24:50;97192.44;;;13.11
15144;BMP180;7672;50.834;6.286;2023-03-14T04:27:17;97194.00;;;13.14
15144;BMP180;7672;50.834;6.286;2023-03-14T04:29:44;97194.06;;;13.12
15144;BMP180;7672;50.834;6.286;2023-03-14T04:32:11;97183.94;;;13.12
15144;BMP180;7672;50.834;6.286;2023-03-14T04:34:38;97182.28;;;13.11
15144;BMP180;7672;50.834;6.286;2023-03-14T04:37:04;97189.09;;;13.11
15144;BMP180;7672;50.834;6.286;2023-03-14T04:39:31;97181.56;;;13.09
15144;BMP180;7672;50.834;6.286;2023-03-14T04:41:58;97179.91;;;13.08
15144;BMP180;7672;50.834;6.286;2023-03-14T04:44:25;97179.91;;;13.08
15144;BMP180;7672;50.834;6.286;2023-03-14T04:46:52;97182.44;;;13.08
15144;BMP180;7672;50.834;6.286;2023-03-14T04:49:19;97172.28;;;13.08
15144;BMP180;7672;50.834;6.286;2023-03-14T04:51:45;97175.72;;;13.07
15144;BMP180;7672;50.834;6.286;2023-03-14T04:54:12;97173.19;;;13.07
15144;BMP180;7672;50.834;6.286;2023-03-14T04:56:39;97168.19;;;13.06
15144;BMP180;7672;50.834;6.286;2023-03-14T04:59:06;97166.59;;;13.03
15144;BMP180;7672;50.834;6.286;2023-03-14T05:01:35;97155.59;;;13.04
15144;BMP180;7672;50.834;6.286;2023-03-14T05:04:02;97161.53;;;13.03
15144;BMP180;7672;50.834;6.286;2023-03-14T05:06:29;97165.03;;;13.01
15144;BMP180;7672;50.834;6.286;2023-03-14T05:08:56;97156.47;;;13.03
15144;BMP180;7672;50.834;6.286;2023-03-14T05:11:22;97159.06;;;13.02
15144;BMP180;7672;50.834;6.286;2023-03-14T05:13:49;97155.72;;;13.01
15144;BMP180;7672;50.834;6.286;2023-03-14T05:16:16;97159.16;;;13.00
15144;BMP180;7672;50.834;6.286;2023-03-14T05:18:43;97165.91;;;13.00
15144;BMP180;7672;50.834;6.286;2023-03-14T05:21:09;97174.34;;;13.00
15144;BMP180;7672;50.834;6.286;2023-03-14T05:23:36;97166.81;;;12.99
15144;BMP180;7672;50.834;6.286;2023-03-14T05:26:03;97164.34;;;12.97
15144;BMP180;7672;50.834;6.286;2023-03-14T05:28:30;97156.72;;;12.97
15144;BMP180;7672;50.834;6.286;2023-03-14T05:30:57;97153.47;;;12.96
15144;BMP180;7672;50.834;6.286;2023-03-14T05:33:24;97154.16;;;12.99
15144;BMP180;7672;50.834;6.286;2023-03-14T05:35:50;97145.63;;;13.00
15144;BMP180;7672;50.834;6.286;2023-03-14T05:38:18;97151.53;;;13.00
15144;BMP180;7672;50.834;6.286;2023-03-14T05:40:45;97147.28;;;13.01
15144;BMP180;7672;50.834;6.286;2023-03-14T05:43:13;97154.78;;;13.04
15144;BMP180;7672;50.834;6.286;2023-03-14T05:45:42;97146.25;;;13.05
15144;BMP180;7672;50.834;6.286;2023-03-14T05:48:09;97140.38;;;13.04
15144;BMP180;7672;50.834;6.286;2023-03-14T05:50:37;97139.56;;;13.04
15144;BMP180;7672;50.834;6.286;2023-03-14T05:53:03;97147.91;;;13.06
15144;BMP180;7672;50.834;6.286;2023-03-14T05:55:31;97140.38;;;13.04
15144;BMP180;7672;50.834;6.286;2023-03-14T05:57:58;97142.91;;;13.04
15144;BMP180;7672;50.834;6.286;2023-03-14T06:00:24;97132.84;;;13.03
15144;BMP180;7672;50.834;6.286;2023-03-14T06:02:51;97132.91;;;13.01
15144;BMP180;7672;50.834;6.286;2023-03-14T06:05:18;97140.38;;;13.04
15144;BMP180;7672;50.834;6.286;2023-03-14T06:07:45;97142.09;;;13.04
15144;BMP180;7672;50.834;6.286;2023-03-14T06:10:12;97142.91;;;13.04
15144;BMP180;7672;50.834;6.286;2023-03-14T06:12:39;97132.75;;;13.04
15144;BMP180;7672;50.834;6.286;2023-03-14T06:15:06;97143.59;;;13.08
15144;BMP180;7672;50.834;6.286;2023-03-14T06:17:33;97146.94;;;13.08
15144;BMP180;7672;50.834;6.286;2023-03-14T06:20:00;97146.78;;;13.11
15144;BMP180;7672;50.834;6.286;2023-03-14T06:22:27;97150.16;;;13.12
15144;BMP180;7672;50.834;6.286;2023-03-14T06:24:54;97148.31;;;13.15
15144;BMP180;7672;50.834;6.286;2023-03-14T06:27:20;97147.22;;;13.21
15144;BMP180;7672;50.834;6.286;2023-03-14T06:29:47;97138.72;;;13.22
15144;BMP180;7672;50.834;6.286;2023-03-14T06:32:16;97144.44;;;13.25
15144;BMP180;7672;50.834;6.286;2023-03-14T06:34:44;97145.91;;;13.31
15144;BMP180;7672;50.834;6.286;2023-03-14T06:37:11;97144.63;;;13.39
15144;BMP180;7672;50.834;6.286;2023-03-14T06:39:38;97141.38;;;13.54
15144;BMP180;7672;50.834;6.286;2023-03-14T06:42:05;97141.53;;;13.68
15144;BMP180;7672;50.834;6.286;2023-03-14T06:44:32;97149.38;;;13.80
15144;BMP180;7672;50.834;6.286;2023-03-14T06:46:59;97146.47;;;13.88
15144;BMP180;7672;50.834;6.286;2023-03-14T06:49:26;97147.06;;;13.93
15144;BMP180;7672;50.834;6.286;2023-03-14T06:51:53;97137.66;;;13.95
15144;BMP180;7672;50.834;6.286;2023-03-14T06:54:19;97147.81;;;13.95
15144;BMP180;7672;50.834;6.286;2023-03-14T06:56:46;97150.34;;;13.95
15144;BMP180;7672;50.834;6.286;2023-03-14T06:59:13;97145.06;;;13.99
15144;BMP180;7672;50.834;6.286;2023-03-14T07:01:40;97149.97;;;14.02
15144;BMP180;7672;50.834;6.286;2023-03-14T07:04:08;97150.22;;;14.15
15144;BMP180;7672;50.834;6.286;2023-03-14T07:06:35;97159.03;;;14.24
15144;BMP180;7672;50.834;6.286;2023-03-14T07:09:03;97162.59;;;14.37
15144;BMP180;7672;50.834;6.286;2023-03-14T07:11:29;97163.94;;;14.44
15144;BMP180;7672;50.834;6.286;2023-03-14T07:13:56;97158.53;;;14.50
15144;BMP180;7672;50.834;6.286;2023-03-14T07:16:23;97169.44;;;14.52
15144;BMP180;7672;50.834;6.286;2023-03-14T07:18:50;97167.72;;;14.53
15144;BMP180;7672;50.834;6.286;2023-03-14T07:21:17;97170.34;;;14.51
15144;BMP180;7672;50.834;6.286;2023-03-14T07:23:43;97183.13;;;14.50
15144;BMP180;7672;50.834;6.286;2023-03-14T07:26:10;97177.38;;;14.46
15144;BMP180;7672;50.834;6.286;2023-03-14T07:28:40;97179.19;;;14.44
15144;BMP180;7672;50.834;6.286;2023-03-14T07:31:07;97179.31;;;14.41
15144;BMP180;7672;50.834;6.286;2023-03-14T07:33:38;97182.63;;;14.43
15144;BMP180;7672;50.834;6.286;2023-03-14T07:36:06;97184.34;;;14.43
15144;BMP180;7672;50.834;6.286;2023-03-14T07:41:09;97191.06;;;14.44
15144;BMP180;7672;50.834;6.286;2023-03-14T07:43:36;97184.34;;;14.43
15144;BMP180;7672;50.834;6.286;2023-03-14T07:46:03;97183.34;;;14.45
15144;BMP180;7672;50.834;6.286;2023-03-14T07:48:30;97190.97;;;14.45
15144;BMP180;7672;50.834;6.286;2023-03-14T07:50:56;97196.00;;;14.47
15144;BMP180;7672;50.834;6.286;2023-03-14T07:53:24;97192.50;;;14.49
15144;BMP180;7672;50.834;6.286;2023-03-14T07:55:53;97193.97;;;14.53
15144;BMP180;7672;50.834;6.286;2023-03-14T07:58:21;97196.94;;;14.61
15144;BMP180;7672;50.834;6.286;2023-03-14T08:00:51;97207.69;;;14.66
15144;BMP180;7672;50.834;6.286;2023-03-14T08:03:19;97199.75;;;14.72
15144;BMP180;7672;50.834;6.286;2023-03-14T08:05:50;97204.69;;;14.75
15144;BMP180;7672;50.834;6.286;2023-03-14T08:08:18;97204.50;;;14.78
15144;BMP180;7672;50.834;6.286;2023-03-14T08:10:45;97196.75;;;14.81
15144;BMP180;7672;50.834;6.286;2023-03-14T08:13:13;97218.56;;;14.85
15144;BMP180;7672;50.834;6.286;2023-03-14T08:15:39;97214.06;;;14.90
15144;BMP180;7672;50.834;6.286;2023-03-14T08:18:06;97221.53;;;14.93
15144;BMP180;7672;50.834;6.286;2023-03-14T08:20:35;97235.09;;;14.93
15144;BMP180;7672;50.834;6.286;2023-03-14T08:23:02;97232.53;;;14.93
15144;BMP180;7672;50.834;6.286;2023-03-14T08:25:29;97245.16;;;14.95
15144;BMP180;7672;50.834;6.286;2023-03-14T08:27:56;97240.88;;;14.95
15144;BMP180;7672;50.834;6.286;2023-03-14T08:30:23;97250.16;;;14.96
15144;BMP180;7672;50.834;6.286;2023-03-14T08:32:50;97254.44;;;14.96
15144;BMP180;7672;50.834;6.286;2023-03-14T08:35:18;97252.72;;;14.96
15144;BMP180;7672;50.834;6.286;2023-03-14T08:37:45;97271.31;;;14.97
15144;BMP180;7672;50.834;6.286;2023-03-14T08:40:12;97261.22;;;14.95
15144;BMP180;7672;50.834;6.286;2023-03-14T08:42:40;97263.78;;;14.95
15144;BMP180;7672;50.834;6.286;2023-03-14T08:45:08;97269.63;;;14.97
15144;BMP180;7672;50.834;6.286;2023-03-14T08:47:35;97278.88;;;14.98
15144;BMP180;7672;50.834;6.286;2023-03-14T08:50:04;97277.25;;;14.97
15144;BMP180;7672;50.834;6.286;2023-03-14T08:52:32;97289.19;;;14.95
15144;BMP180;7672;50.834;6.286;2023-03-14T08:54:59;97297.00;;;14.92
15144;BMP180;7672;50.834;6.286;2023-03-14T08:57:26;97304.03;;;14.87
15144;BMP180;7672;50.834;6.286;2023-03-14T08:59:56;97331.31;;;14.84
15144;BMP180;7672;50.834;6.286;2023-03-14T09:02:24;97333.44;;;14.76
15144;BMP180;7672;50.834;6.286;2023-03-14T09:04:51;97363.72;;;14.64
15144;BMP180;7672;50.834;6.286;2023-03-14T09:07:19;97387.31;;;14.49
15144;BMP180;7672;50.834;6.286;2023-03-14T09:09:46;97409.25;;;14.33
15144;BMP180;7672;50.834;6.286;2023-03-14T09:12:13;97416.81;;;14.16
15144;BMP180;7672;50.834;6.286;2023-03-14T09:14:39;97431.75;;;14.04
15144;BMP180;7672;50.834;6.286;2023-03-14T09:17:06;97434.09;;;13.90
15144;BMP180;7672;50.834;6.286;2023-03-14T09:19:34;97453.97;;;13.80
15144;BMP180;7672;50.834;6.286;2023-03-14T09:22:01;97457.78;;;13.70
15144;BMP180;7672;50.834;6.286;2023-03-14T09:24:28;97469.03;;;13.65
15144;BMP180;7672;50.834;6.286;2023-03-14T09:26:56;97490.44;;;13.59
15144;BMP180;7672;50.834;6.286;2023-03-14T09:29:25;97493.34;;;13.51
15144;BMP180;7672;50.834;6.286;2023-03-14T09:31:52;97494.50;;;13.44
15144;BMP180;7672;50.834;6.286;2023-03-14T09:34:19;97525.25;;;13.36
15144;BMP180;7672;50.834;6.286;2023-03-14T09:36:46;97540.84;;;13.27
15144;BMP180;7672;50.834;6.286;2023-03-14T09:39:13;97544.56;;;13.19
15144;BMP180;7672;50.834;6.286;2023-03-14T09:41:49;97562.66;;;13.10
15144;BMP180;7672;50.834;6.286;2023-03-14T09:44:26;97563.03;;;13.01
15144;BMP180;7672;50.834;6.286;2023-03-14T09:47:00;97581.91;;;12.94
15144;BMP180;7672;50.834;6.286;2023-03-14T09:49:33;97582.13;;;12.88
15144;BMP180;7672;50.834;6.286;2023-03-14T09:52:11;97597.41;;;12.87
15144;BMP180;7672;50.834;6.286;2023-03-14T09:54:47;97598.16;;;12.89
15144;BMP180;7672;50.834;6.286;2023-03-14T09:57:24;97636.19;;;12.89
15144;BMP180;7672;50.834;6.286;2023-03-14T09:59:56;97632.78;;;12.90
15144;BMP180;7672;50.834;6.286;2023-03-14T10:02:33;97640.28;;;12.93
15144;BMP180;7672;50.834;6.286;2023-03-14T10:05:01;97650.28;;;12.96
15144;BMP180;7672;50.834;6.286;2023-03-14T10:07:33;97640.16;;;12.96
15144;BMP180;7672;50.834;6.286;2023-03-14T10:10:00;97642.50;;;13.00
15144;BMP180;7672;50.834;6.286;2023-03-14T10:12:33;97649.47;;;12.95
15144;BMP180;7672;50.834;6.286;2023-03-14T10:15:13;97653.78;;;12.93
15144;BMP180;7672;50.834;6.286;2023-03-14T10:17:48;97668.25;;;12.90
15144;BMP180;7672;50.834;6.286;2023-03-14T10:20:35;97686.06;;;12.88
15144;BMP180;7672;50.834;6.286;2023-03-14T10:25:57;97708.88;;;12.88
15144;BMP180;7672;50.834;6.286;2023-03-14T10:28:29;97709.66;;;12.90
15144;BMP180;7672;50.834;6.286;2023-03-14T10:30:58;97716.34;;;12.93
15144;BMP180;7672;50.834;6.286;2023-03-14T10:33:34;97728.88;;;12.96
15144;BMP180;7672;50.834;6.286;2023-03-14T10:36:28;97737.25;;;12.97
15144;BMP180;7672;50.834;6.286;2023-03-14T10:41:50;97760.31;;;13.14
15144;BMP180;7672;50.834;6.286;2023-03-14T10:44:23;97756.66;;;13.21
15144;BMP180;7672;50.834;6.286;2023-03-14T10:47:17;97769.91;;;13.29
15144;BMP180;7672;50.834;6.286;2023-03-14T10:49:45;97772.38;;;13.31
15144;BMP180;7672;50.834;6.286;2023-03-14T10:52:26;97780.03;;;13.29
15144;BMP180;7672;50.834;6.286;2023-03-14T10:55:09;97790.19;;;13.29
15144;BMP180;7672;50.834;6.286;2023-03-14T10:57:44;97799.44;;;13.30
15144;BMP180;7672;50.834;6.286;2023-03-14T11:00:16;97801.75;;;13.36
15144;BMP180;7672;50.834;6.286;2023-03-14T11:03:11;97810.91;;;13.40
15144;BMP180;7672;50.834;6.286;2023-03-14T11:05:49;97831.19;;;13.40
15144;BMP180;7672;50.834;6.286;2023-03-14T11:08:46;97842.22;;;13.39
15144;BMP180;7672;50.834;6.286;2023-03-14T11:11:24;97847.41;;;13.36
15144;BMP180;7672;50.834;6.286;2023-03-14T11:14:23;97854.09;;;13.39
15144;BMP180;7672;50.834;6.286;2023-03-14T11:23:13;97860.03;;;13.60
15144;BMP180;7672;50.834;6.286;2023-03-14T11:25:56;97874.03;;;13.70
15144;BMP180;7672;50.834;6.286;2023-03-14T11:28:37;97879.44;;;13.84
15144;BMP180;7672;50.834;6.286;2023-03-14T11:36:47;97901.78;;;14.42
15144;BMP180;7672;50.834;6.286;2023-03-14T11:39:19;97914.13;;;14.51
15144;BMP180;7672;50.834;6.286;2023-03-14T11:41:52;97920.69;;;14.56
15144;BMP180;7672;50.834;6.286;2023-03-14T11:44:50;97927.59;;;14.53
15144;BMP180;7672;50.834;6.286;2023-03-14T11:47:29;97981.31;;;14.44
15144;BMP180;7672;50.834;6.286;2023-03-14T11:50:12;97986.88;;;14.32
15144;BMP180;7672;50.834;6.286;2023-03-14T11:52:56;98000.50;;;14.07
15144;BMP180;7672;50.834;6.286;2023-03-14T11:55:36;98011.66;;;13.80
15144;BMP180;7672;50.834;6.286;2023-03-14T12:00:41;98017.44;;;13.35
15144;BMP180;7672;50.834;6.286;2023-03-14T12:03:25;98029.00;;;13.17
15144;BMP180;7672;50.834;6.286;2023-03-14T12:11:48;98048.00;;;12.77
15144;BMP180;7672;50.834;6.286;2023-03-14T12:17:23;98073.09;;;12.59
15144;BMP180;7672;50.834;6.286;2023-03-14T12:20:24;98078.38;;;12.51
15144;BMP180;7672;50.834;6.286;2023-03-14T12:23:02;98082.69;;;12.48
15144;BMP180;7672;50.834;6.286;2023-03-14T12:25:34;98087.00;;;12.46
15144;BMP180;7672;50.834;6.286;2023-03-14T12:28:30;98100.44;;;12.48
15144;BMP180;7672;50.834;6.286;2023-03-14T12:31:37;98111.41;;;12.48
15144;BMP180;7672;50.834;6.286;2023-03-14T12:34:28;98123.19;;;12.49
15144;BMP180;7672;50.834;6.286;2023-03-14T12:37:22;98126.47;;;12.53
15144;BMP180;7672;50.834;6.286;2023-03-14T12:45:39;98144.88;;;12.59
15144;BMP180;7672;50.834;6.286;2023-03-14T12:48:16;98145.72;;;12.60
15144;BMP180;7672;50.834;6.286;2023-03-14T12:50:54;98152.34;;;12.64
15144;BMP180;7672;50.834;6.286;2023-03-14T12:53:55;98165.78;;;12.66
15144;BMP180;7672;50.834;6.286;2023-03-14T12:56:54;98160.69;;;12.67
15144;BMP180;7672;50.834;6.286;2023-03-14T12:59:30;98176.69;;;12.69
15144;BMP180;7672;50.834;6.286;2023-03-14T13:02:13;98179.97;;;12.73
15144;BMP180;7672;50.834;6.286;2023-03-14T13:07:33;98200.25;;;12.73
15144;BMP180;7672;50.834;6.286;2023-03-14T13:13:14;98206.19;;;12.72
15144;BMP180;7672;50.834;6.286;2023-03-14T13:15:48;98213.75;;;12.73
15144;BMP180;7672;50.834;6.286;2023-03-14T13:21:27;98228.91;;;12.75
15144;BMP180;7672;50.834;6.286;2023-03-14T13:24:06;98239.03;;;12.76
15144;BMP180;7672;50.834;6.286;2023-03-14T13:26:41;98238.13;;;12.77
15144;BMP180;7672;50.834;6.286;2023-03-14T13:31:52;98275.22;;;12.80
15144;BMP180;7672;50.834;6.286;2023-03-14T13:34:19;98304.84;;;12.79
15144;BMP180;7672;50.834;6.286;2023-03-14T13:36:47;98308.31;;;12.75
15144;BMP180;7672;50.834;6.286;2023-03-14T13:39:20;98315.22;;;12.70
15144;BMP180;7672;50.834;6.286;2023-03-14T13:41:58;98325.59;;;12.61
15144;BMP180;7672;50.834;6.286;2023-03-14T13:44:31;98315.69;;;12.52
15144;BMP180;7672;50.834;6.286;2023-03-14T13:47:00;98332.75;;;12.44
15144;BMP180;7672;50.834;6.286;2023-03-14T13:49:30;98332.22;;;12.33
15144;BMP180;7672;50.834;6.286;2023-03-14T13:51:59;98340.81;;;12.27
15144;BMP180;7672;50.834;6.286;2023-03-14T13:54:27;98343.47;;;12.22
15144;BMP180;7672;50.834;6.286;2023-03-14T13:57:04;98352.03;;;12.17
15144;BMP180;7672;50.834;6.286;2023-03-14T13:59:34;98363.13;;;12.11
15144;BMP180;7672;50.834;6.286;2023-03-14T14:02:13;98367.41;;;12.09
15144;BMP180;7672;50.834;6.286;2023-03-14T14:04:44;98362.44;;;12.05
15144;BMP180;7672;50.834;6.286;2023-03-14T14:07:16;98376.00;;;12.02
15144;BMP180;7672;50.834;6.286;2023-03-14T14:09:51;98383.69;;;11.99
15144;BMP180;7672;50.834;6.286;2023-03-14T14:12:30;98397.19;;;11.98
15144;BMP180;7672;50.834;6.286;2023-03-14T14:15:01;98393.03;;;11.96
15144;BMP180;7672;50.834;6.286;2023-03-14T14:17:38;98402.34;;;11.95
15144;BMP180;7672;50.834;6.286;2023-03-14T14:20:21;98409.16;;;11.92
15144;BMP180;7672;50.834;6.286;2023-03-14T14:22:51;98421.81;;;11.92
15144;BMP180;7672;50.834;6.286;2023-03-14T14:25:18;98428.59;;;11.90
15144;BMP180;7672;50.834;6.286;2023-03-14T14:27:49;98436.22;;;11.88
15144;BMP180;7672;50.834;6.286;2023-03-14T14:32:45;98446.44;;;11.85
15144;BMP180;7672;50.834;6.286;2023-03-14T14:35:34;98448.16;;;11.83
15144;BMP180;7672;50.834;6.286;2023-03-14T14:38:10;98455.78;;;11.82
15144;BMP180;7672;50.834;6.286;2023-03-14T14:40:46;98459.16;;;11.81
15144;BMP180;7672;50.834;6.286;2023-03-14T14:43:20;98465.88;;;11.83
15144;BMP180;7672;50.834;6.286;2023-03-14T14:45:51;98471.75;;;11.85
15144;BMP180;7672;50.834;6.286;2023-03-14T14:48:27;98484.31;;;11.88
15144;BMP180;7672;50.834;6.286;2023-03-14T14:51:01;98480.94;;;11.89
15144;BMP180;7672;50.834;6.286;2023-03-14T14:53:37;98489.28;;;11.94
15144;BMP180;7672;50.834;6.286;2023-03-14T14:56:16;98493.41;;;11.98
15144;BMP180;7672;50.834;6.286;2023-03-14T14:58:47;98507.66;;;12.02
15144;BMP180;7672;50.834;6.286;2023-03-14T15:01:23;98505.06;;;12.07
15144;BMP180;7672;50.834;6.286;2023-03-14T15:03:53;98512.53;;;12.11
15144;BMP180;7672;50.834;6.286;2023-03-14T15:06:28;98509.97;;;12.14
15144;BMP180;7672;50.834;6.286;2023-03-14T15:08:56;98523.38;;;12.18
15144;BMP180;7672;50.834;6.286;2023-03-14T15:11:26;98523.34;;;12.19
15144;BMP180;7672;50.834;6.286;2023-03-14T15:13:54;98527.59;;;12.19
15144;BMP180;7672;50.834;6.286;2023-03-14T15:16:28;98540.34;;;12.14
15144;BMP180;7672;50.834;6.286;2023-03-14T15:19:02;98545.47;;;12.11
15144;BMP180;7672;50.834;6.286;2023-03-14T15:21:49;98547.25;;;12.06
15144;BMP180;7672;50.834;6.286;2023-03-14T15:24:15;98549.00;;;12.04
15144;BMP180;7672;50.834;6.286;2023-03-14T15:26:42;98553.25;;;12.02
15144;BMP180;7672;50.834;6.286;2023-03-14T15:29:12;98554.09;;;12.01
15144;BMP180;7672;50.834;6.286;2023-03-14T15:31:40;98552.50;;;11.97
15144;BMP180;7672;50.834;6.286;2023-03-14T15:34:08;98561.84;;;11.94
15144;BMP180;7672;50.834;6.286;2023-03-14T15:36:36;98565.25;;;11.93
15144;BMP180;7672;50.834;6.286;2023-03-14T15:39:06;98573.72;;;11.92